createdAt,value
2018-09-28T00:00:58.954Z,49.10
2018-09-28T00:03:27.573Z,49.20
2018-09-28T00:05:56.320Z,49.20
2018-09-28T00:08:24.564Z,49.20
2018-09-28T00:10:52.817Z,49.20
2018-09-28T00:13:21.101Z,49.20
2018-09-28T00:15:49.416Z,49.20
2018-09-28T00:18:17.689Z,49.30
2018-09-28T00:20:46.014Z,49.20
2018-09-28T00:23:14.304Z,49.20
2018-09-28T00:25:42.564Z,49.30
2018-09-28T00:28:11.049Z,49.40
2018-09-28T00:30:39.293Z,49.30
2018-09-28T00:33:07.549Z,49.30
2018-09-28T00:35:35.808Z,49.40
2018-09-28T00:38:04.177Z,49.30
2018-09-28T00:40:32.446Z,49.30
2018-09-28T00:43:00.721Z,49.30
2018-09-28T00:45:28.993Z,49.40
2018-09-28T00:47:57.266Z,49.30
2018-09-28T00:50:25.506Z,49.40
2018-09-28T00:52:53.797Z,49.50
2018-09-28T00:55:22.069Z,49.50
2018-09-28T01:00:20.985Z,49.50
2018-09-28T01:02:49.226Z,49.50
2018-09-28T01:05:17.506Z,49.60
2018-09-28T01:07:45.754Z,49.50
2018-09-28T01:10:14.006Z,49.50
2018-09-28T01:12:42.256Z,49.50
2018-09-28T01:15:10.547Z,49.50
2018-09-28T01:17:38.805Z,49.60
2018-09-28T01:20:07.122Z,49.50
2018-09-28T01:22:35.485Z,50.30
2018-09-28T01:25:03.753Z,49.70
2018-09-28T01:27:32.022Z,49.70
2018-09-28T01:30:00.262Z,49.90
2018-09-28T01:32:28.523Z,49.70
2018-09-28T01:34:56.744Z,49.80
2018-09-28T01:37:25.161Z,49.70
2018-09-28T01:39:53.489Z,49.80
2018-09-28T01:42:21.743Z,49.70
2018-09-28T01:44:49.969Z,49.50
2018-09-28T01:47:18.190Z,49.60
2018-09-28T01:49:46.450Z,49.70
2018-09-28T01:52:14.698Z,49.60
2018-09-28T01:54:42.937Z,49.70
2018-09-28T01:57:11.192Z,49.60
2018-09-28T01:59:39.453Z,49.60
2018-09-28T02:02:07.743Z,49.60
2018-09-28T02:04:36.028Z,49.60
2018-09-28T02:07:04.280Z,49.60
2018-09-28T02:09:32.521Z,49.80
2018-09-28T02:12:00.801Z,49.80
2018-09-28T02:14:29.058Z,49.60
2018-09-28T02:16:57.339Z,49.60
2018-09-28T02:19:25.573Z,49.80
2018-09-28T02:21:53.829Z,49.60
2018-09-28T02:24:22.149Z,49.60
2018-09-28T02:26:50.384Z,49.80
2018-09-28T02:29:18.637Z,49.80
2018-09-28T02:31:46.900Z,49.80
2018-09-28T02:34:15.156Z,49.80
2018-09-28T02:36:43.453Z,49.90
2018-09-28T02:39:11.688Z,49.90
2018-09-28T02:41:39.944Z,50.00
2018-09-28T02:44:08.401Z,50.00
2018-09-28T02:46:36.697Z,50.10
2018-09-28T02:49:05.366Z,50.20
2018-09-28T02:51:33.621Z,49.90
2018-09-28T02:54:01.889Z,50.00
2018-09-28T02:56:30.298Z,50.10
2018-09-28T02:58:58.587Z,50.20
2018-09-28T03:01:26.891Z,50.10
2018-09-28T03:03:55.147Z,50.40
2018-09-28T03:06:23.467Z,52.70
2018-09-28T03:08:51.704Z,53.20
2018-09-28T03:11:19.954Z,53.00
2018-09-28T03:13:48.193Z,52.80
2018-09-28T03:16:16.432Z,52.60
2018-09-28T03:18:44.704Z,52.50
2018-09-28T03:21:12.978Z,52.30
2018-09-28T03:23:41.225Z,53.00
2018-09-28T03:26:09.472Z,52.10
2018-09-28T03:28:37.724Z,52.00
2018-09-28T03:31:06.144Z,52.00
2018-09-28T03:33:34.422Z,51.90
2018-09-28T03:36:02.692Z,51.80
2018-09-28T03:38:30.976Z,51.80
2018-09-28T03:40:59.249Z,51.80
2018-09-28T03:43:27.532Z,51.80
2018-09-28T03:45:55.803Z,51.70
2018-09-28T03:48:24.059Z,51.70
2018-09-28T03:50:52.302Z,51.60
2018-09-28T03:53:20.543Z,51.60
2018-09-28T03:55:48.837Z,51.60
2018-09-28T03:58:17.113Z,51.60
2018-09-28T04:00:45.421Z,51.50
2018-09-28T04:03:13.662Z,51.50
2018-09-28T04:05:41.914Z,51.50
2018-09-28T04:08:10.173Z,52.20
2018-09-28T04:10:38.457Z,51.40
2018-09-28T04:13:06.733Z,51.50
2018-09-28T04:15:35.022Z,51.50
2018-09-28T04:18:03.284Z,51.50
2018-09-28T04:20:31.534Z,51.50
2018-09-28T04:22:59.770Z,51.50
2018-09-28T04:25:27.991Z,51.50
2018-09-28T04:27:56.243Z,51.50
2018-09-28T04:30:24.503Z,51.40
2018-09-28T04:32:52.769Z,51.50
2018-09-28T04:35:20.999Z,51.50
2018-09-28T04:37:49.248Z,51.50
2018-09-28T04:40:17.484Z,51.50
2018-09-28T04:42:45.778Z,51.50
2018-09-28T04:45:14.080Z,51.40
2018-09-28T04:47:42.315Z,51.40
2018-09-28T04:50:10.555Z,51.40
2018-09-28T04:52:38.797Z,51.40
2018-09-28T04:55:07.045Z,51.40
2018-09-28T04:57:35.305Z,51.50
2018-09-28T05:00:03.569Z,51.50
2018-09-28T05:02:31.834Z,51.40
2018-09-28T05:05:00.082Z,51.50
2018-09-28T05:07:28.325Z,51.50
2018-09-28T05:09:56.621Z,52.10
2018-09-28T05:12:24.878Z,51.50
2018-09-28T05:14:53.146Z,51.50
2018-09-28T05:17:21.387Z,51.50
2018-09-28T05:19:49.645Z,51.40
2018-09-28T05:22:17.856Z,51.50
2018-09-28T05:24:46.115Z,51.50
2018-09-28T05:27:14.397Z,51.60
2018-09-28T05:29:42.728Z,51.50
2018-09-28T05:32:11.089Z,51.70
2018-09-28T05:34:39.217Z,51.70
2018-09-28T05:37:07.511Z,51.60
2018-09-28T05:39:35.820Z,51.70
2018-09-28T05:42:04.010Z,51.50
2018-09-28T05:44:32.259Z,51.50
2018-09-28T05:47:00.525Z,51.50
2018-09-28T05:49:28.805Z,51.50
2018-09-28T05:51:57.057Z,51.40
2018-09-28T05:54:25.300Z,51.60
2018-09-28T05:56:53.542Z,51.60
2018-09-28T05:59:27.054Z,51.60
2018-09-28T06:02:00.770Z,51.70
2018-09-28T06:04:34.478Z,51.50
2018-09-28T06:07:02.792Z,51.50
2018-09-28T06:09:31.037Z,51.30
2018-09-28T06:11:59.291Z,51.10
2018-09-28T06:14:27.554Z,51.10
2018-09-28T06:16:55.834Z,51.00
2018-09-28T06:19:24.263Z,50.90
2018-09-28T06:21:52.565Z,50.90
2018-09-28T06:24:20.807Z,50.90
2018-09-28T06:26:49.085Z,50.80
2018-09-28T06:29:17.309Z,50.80
2018-09-28T06:31:45.571Z,50.70
2018-09-28T06:34:13.801Z,50.60
2018-09-28T06:36:42.047Z,51.20
2018-09-28T06:39:10.286Z,50.60
2018-09-28T06:41:38.508Z,50.50
2018-09-28T06:44:06.763Z,50.50
2018-09-28T06:46:34.976Z,50.40
2018-09-28T06:49:03.216Z,50.50
2018-09-28T06:51:31.437Z,50.80
2018-09-28T06:53:59.693Z,50.60
2018-09-28T06:56:27.966Z,50.70
2018-09-28T06:58:56.257Z,51.00
2018-09-28T07:01:24.494Z,51.00
2018-09-28T07:03:52.744Z,51.00
2018-09-28T07:06:21.041Z,51.10
2018-09-28T07:08:49.224Z,51.30
2018-09-28T07:11:17.442Z,51.40
2018-09-28T07:13:45.675Z,51.40
2018-09-28T07:16:13.949Z,51.40
2018-09-28T07:18:42.166Z,51.30
2018-09-28T07:21:10.449Z,51.30
2018-09-28T07:23:38.911Z,51.70
2018-09-28T07:26:07.386Z,50.90
2018-09-28T07:28:35.613Z,50.90
2018-09-28T07:31:03.876Z,50.70
2018-09-28T07:33:32.208Z,50.70
2018-09-28T07:36:00.450Z,50.60
2018-09-28T07:38:28.692Z,50.60
2018-09-28T07:40:56.925Z,50.40
2018-09-28T07:43:25.193Z,50.50
2018-09-28T07:45:53.444Z,50.50
2018-09-28T07:48:21.742Z,50.50
2018-09-28T07:50:49.985Z,50.40
2018-09-28T07:53:18.207Z,51.40
2018-09-28T07:55:46.455Z,51.60
2018-09-28T07:58:14.711Z,51.10
2018-09-28T08:00:42.954Z,50.20
2018-09-28T08:03:11.289Z,50.00
2018-09-28T08:05:39.529Z,51.10
2018-09-28T08:08:07.751Z,51.10
2018-09-28T08:10:36.039Z,50.40
2018-09-28T08:13:04.404Z,52.00
2018-09-28T08:15:32.653Z,51.80
2018-09-28T08:18:01.002Z,53.00
2018-09-28T08:20:29.149Z,53.40
2018-09-28T08:22:57.400Z,51.20
2018-09-28T08:25:25.626Z,53.00
2018-09-28T08:27:53.903Z,52.40
2018-09-28T08:30:22.158Z,52.60
2018-09-28T08:32:50.395Z,54.60
2018-09-28T08:35:18.684Z,54.30
2018-09-28T08:37:46.944Z,53.70
2018-09-28T08:40:15.203Z,53.10
2018-09-28T08:42:43.466Z,52.30
2018-09-28T08:45:11.710Z,51.10
2018-09-28T08:47:39.956Z,51.20
2018-09-28T08:50:08.293Z,52.20
2018-09-28T08:52:36.530Z,50.20
2018-09-28T08:55:04.841Z,51.20
2018-09-28T08:57:33.094Z,50.90
2018-09-28T09:00:01.352Z,52.50
2018-09-28T09:02:29.616Z,51.50
2018-09-28T09:04:57.874Z,50.90
2018-09-28T09:07:26.174Z,52.70
2018-09-28T09:09:54.428Z,50.80
2018-09-28T09:12:22.658Z,49.70
2018-09-28T09:14:50.901Z,49.80
2018-09-28T09:17:19.174Z,49.50
2018-09-28T09:19:47.443Z,49.40
2018-09-28T09:22:15.679Z,49.50
2018-09-28T09:24:44.008Z,49.70
2018-09-28T09:27:12.262Z,50.50
2018-09-28T09:29:40.519Z,50.00
2018-09-28T09:32:08.785Z,49.30
2018-09-28T09:34:37.018Z,49.40
2018-09-28T09:37:05.278Z,49.90
2018-09-28T09:39:33.540Z,49.30
2018-09-28T09:42:01.792Z,48.80
2018-09-28T09:44:30.053Z,48.70
2018-09-28T09:46:58.381Z,49.40
2018-09-28T09:49:26.648Z,48.70
2018-09-28T09:51:54.878Z,48.50
2018-09-28T09:54:23.140Z,48.40
2018-09-28T09:56:51.397Z,48.60
2018-09-28T09:59:19.735Z,48.00
2018-09-28T10:01:53.259Z,47.80
2018-09-28T10:04:21.514Z,47.90
2018-09-28T10:06:49.757Z,47.60
2018-09-28T10:09:18.061Z,47.30
2018-09-28T10:11:46.337Z,47.10
2018-09-28T10:14:14.591Z,47.70
2018-09-28T10:16:42.900Z,47.50
2018-09-28T10:19:11.169Z,47.30
2018-09-28T10:21:39.420Z,47.20
2018-09-28T10:24:07.706Z,47.00
2018-09-28T10:26:35.978Z,47.10
2018-09-28T10:29:04.274Z,47.10
2018-09-28T10:31:32.536Z,47.10
2018-09-28T10:34:00.811Z,47.10
2018-09-28T10:36:29.171Z,47.00
2018-09-28T10:38:57.432Z,46.90
2018-09-28T10:41:25.691Z,46.60
2018-09-28T10:43:53.976Z,46.50
2018-09-28T10:46:22.250Z,46.30
2018-09-28T10:48:50.502Z,46.60
2018-09-28T10:51:18.800Z,46.60
2018-09-28T10:53:47.038Z,46.70
2018-09-28T10:56:15.291Z,46.50
2018-09-28T10:58:43.606Z,46.10
2018-09-28T11:01:11.809Z,46.30
2018-09-28T11:03:40.149Z,46.20
2018-09-28T11:06:08.345Z,46.20
2018-09-28T11:08:37.044Z,46.20
2018-09-28T11:11:05.232Z,45.70
2018-09-28T11:13:33.500Z,46.10
2018-09-28T11:16:01.778Z,44.20
2018-09-28T11:18:30.013Z,45.90
2018-09-28T11:20:58.279Z,43.20
2018-09-28T11:23:26.555Z,44.20
2018-09-28T11:25:54.813Z,41.20
2018-09-28T11:28:23.112Z,45.30
2018-09-28T11:30:51.384Z,39.70
2018-09-28T11:33:19.683Z,43.30
2018-09-28T11:35:47.943Z,44.40
2018-09-28T11:38:16.194Z,40.90
2018-09-28T11:40:44.492Z,44.70
2018-09-28T11:43:12.810Z,44.80
2018-09-28T11:45:41.057Z,41.90
2018-09-28T11:48:09.306Z,44.80
2018-09-28T11:50:37.597Z,43.50
2018-09-28T11:53:05.861Z,42.80
2018-09-28T11:55:34.097Z,42.20
2018-09-28T11:58:02.365Z,43.70
2018-09-28T12:00:30.658Z,43.40
2018-09-28T12:02:58.918Z,43.20
2018-09-28T12:05:27.172Z,43.90
2018-09-28T12:07:55.434Z,42.20
2018-09-28T12:10:23.680Z,43.30
2018-09-28T12:12:51.939Z,44.40
2018-09-28T12:15:20.255Z,40.90
2018-09-28T12:17:48.506Z,42.50
2018-09-28T12:20:16.740Z,43.10
2018-09-28T12:22:45.035Z,43.10
2018-09-28T12:25:13.308Z,43.50
2018-09-28T12:27:41.644Z,43.60
2018-09-28T12:30:09.869Z,43.30
2018-09-28T12:32:38.282Z,43.10
2018-09-28T12:35:06.688Z,43.70
2018-09-28T12:37:34.949Z,38.30
2018-09-28T12:40:03.285Z,43.70
2018-09-28T12:42:31.501Z,42.10
2018-09-28T12:44:59.822Z,41.10
2018-09-28T12:47:28.098Z,43.60
2018-09-28T12:49:56.369Z,43.80
2018-09-28T12:52:24.648Z,43.40
2018-09-28T12:54:53.009Z,43.40
2018-09-28T12:57:21.227Z,42.90
2018-09-28T12:59:49.492Z,42.80
2018-09-28T13:02:17.885Z,40.70
2018-09-28T13:04:46.094Z,41.20
2018-09-28T13:07:14.386Z,38.10
2018-09-28T13:09:42.671Z,43.10
2018-09-28T13:12:10.957Z,42.60
2018-09-28T13:14:39.266Z,42.70
2018-09-28T13:17:07.492Z,42.70
2018-09-28T13:19:35.804Z,42.20
2018-09-28T13:22:04.089Z,43.20
2018-09-28T13:24:32.365Z,39.60
2018-09-28T13:27:00.633Z,42.80
2018-09-28T13:29:28.909Z,39.20
2018-09-28T13:31:57.201Z,41.30
2018-09-28T13:34:25.445Z,41.90
2018-09-28T13:36:53.754Z,40.50
2018-09-28T13:39:22.063Z,40.00
2018-09-28T13:41:50.349Z,42.50
2018-09-28T13:44:18.665Z,41.60
2018-09-28T13:46:46.861Z,42.10
2018-09-28T13:49:15.129Z,43.40
2018-09-28T13:51:43.390Z,41.60
2018-09-28T13:54:11.692Z,41.50
2018-09-28T13:56:39.987Z,41.60
2018-09-28T13:59:08.216Z,43.10
2018-09-28T14:01:36.477Z,40.20
2018-09-28T14:04:04.767Z,40.50
2018-09-28T14:06:33.023Z,40.50
2018-09-28T14:09:01.274Z,41.20
2018-09-28T14:11:29.547Z,41.80
2018-09-28T14:13:58.128Z,42.30
2018-09-28T14:16:26.644Z,41.20
2018-09-28T14:18:54.894Z,43.50
2018-09-28T14:21:23.145Z,40.60
2018-09-28T14:23:51.473Z,42.40
2018-09-28T14:26:19.798Z,41.10
2018-09-28T14:28:48.085Z,42.20
2018-09-28T14:31:16.439Z,42.00
2018-09-28T14:33:44.743Z,40.60
2018-09-28T14:36:13.019Z,42.90
2018-09-28T14:38:41.324Z,40.00
2018-09-28T14:41:09.549Z,41.00
2018-09-28T14:43:37.910Z,42.70
2018-09-28T14:46:06.191Z,43.30
2018-09-28T14:48:34.555Z,43.30
2018-09-28T14:51:02.721Z,40.00
2018-09-28T14:53:31.013Z,41.70
2018-09-28T14:55:59.301Z,42.20
2018-09-28T14:58:27.727Z,41.80
2018-09-28T15:00:56.041Z,43.10
2018-09-28T15:03:24.249Z,43.20
2018-09-28T15:05:52.497Z,40.70
2018-09-28T15:08:20.839Z,42.60
2018-09-28T15:10:49.131Z,43.30
2018-09-28T15:13:17.301Z,43.20
2018-09-28T15:15:45.588Z,43.30
2018-09-28T15:18:13.869Z,44.10
2018-09-28T15:20:42.148Z,42.60
2018-09-28T15:23:10.418Z,43.20
2018-09-28T15:25:38.729Z,43.00
2018-09-28T15:28:06.974Z,43.70
2018-09-28T15:30:35.241Z,44.30
2018-09-28T15:33:03.496Z,42.40
2018-09-28T15:35:31.784Z,44.20
2018-09-28T15:38:00.040Z,44.30
2018-09-28T15:40:28.348Z,43.90
2018-09-28T15:42:56.753Z,43.00
2018-09-28T15:45:25.029Z,43.80
2018-09-28T15:47:53.405Z,44.10
2018-09-28T15:50:21.729Z,44.10
2018-09-28T15:52:50.030Z,43.60
2018-09-28T15:55:19.224Z,42.20
2018-09-28T15:57:47.538Z,44.70
2018-09-28T16:00:15.797Z,43.80
2018-09-28T16:02:44.064Z,43.70
2018-09-28T16:05:12.348Z,42.60
2018-09-28T16:07:40.649Z,44.20
2018-09-28T16:10:08.915Z,44.60
2018-09-28T16:12:37.243Z,44.20
2018-09-28T16:15:05.515Z,44.00
2018-09-28T16:17:33.848Z,43.80
2018-09-28T16:20:02.148Z,44.70
2018-09-28T16:22:30.403Z,44.80
2018-09-28T16:24:58.653Z,43.80
2018-09-28T16:27:26.961Z,44.70
2018-09-28T16:29:55.208Z,45.00
2018-09-28T16:32:23.474Z,44.50
2018-09-28T16:34:51.796Z,44.90
2018-09-28T16:37:20.683Z,45.20
2018-09-28T16:39:49.221Z,45.30
2018-09-28T16:42:17.480Z,45.50
2018-09-28T16:44:45.768Z,45.30
2018-09-28T16:47:14.356Z,45.50
2018-09-28T16:49:42.630Z,45.60
2018-09-28T16:52:10.926Z,45.30
2018-09-28T16:54:39.206Z,46.10
2018-09-28T16:57:07.793Z,45.60
2018-09-28T16:59:36.034Z,46.80
2018-09-28T17:02:04.411Z,45.80
2018-09-28T17:04:32.649Z,46.10
2018-09-28T17:07:00.926Z,46.10
2018-09-28T17:09:29.237Z,45.90
2018-09-28T17:11:57.560Z,45.60
2018-09-28T17:14:25.836Z,46.50
2018-09-28T17:16:54.102Z,46.20
2018-09-28T17:19:22.359Z,46.40
2018-09-28T17:21:50.636Z,46.70
2018-09-28T17:24:18.893Z,45.70
2018-09-28T17:26:47.143Z,45.60
2018-09-28T17:29:15.424Z,46.60
2018-09-28T17:31:43.648Z,46.40
2018-09-28T17:34:11.945Z,46.30
2018-09-28T17:36:40.161Z,46.10
2018-09-28T17:39:09.889Z,44.70
2018-09-28T17:41:38.277Z,46.50
2018-09-28T17:44:06.627Z,45.80
2018-09-28T17:46:34.869Z,45.50
2018-09-28T17:49:03.103Z,45.00
2018-09-28T17:51:32.699Z,45.10
2018-09-28T17:54:00.962Z,45.60
2018-09-28T17:56:29.261Z,44.80
2018-09-28T17:58:57.500Z,46.30
2018-09-28T18:01:25.750Z,46.30
2018-09-28T18:03:54.014Z,45.90
2018-09-28T18:06:22.293Z,46.20
2018-09-28T18:08:50.555Z,46.80
2018-09-28T18:11:18.839Z,46.80
2018-09-28T18:13:47.187Z,46.40
2018-09-28T18:16:15.557Z,46.30
2018-09-28T18:18:43.805Z,46.50
2018-09-28T18:21:12.099Z,47.40
2018-09-28T18:23:40.396Z,47.00
2018-09-28T18:26:08.677Z,47.00
2018-09-28T18:28:37.124Z,47.30
2018-09-28T18:31:05.425Z,47.20
2018-09-28T18:33:33.732Z,47.00
2018-09-28T18:36:01.973Z,47.50
2018-09-28T18:38:30.266Z,47.90
2018-09-28T18:40:58.645Z,47.90
2018-09-28T18:43:26.903Z,48.90
2018-09-28T18:45:55.140Z,49.10
2018-09-28T18:48:23.399Z,49.70
2018-09-28T18:50:51.739Z,49.40
2018-09-28T18:53:21.119Z,49.40
2018-09-28T18:55:50.038Z,49.50
2018-09-28T18:58:18.432Z,49.90
2018-09-28T19:00:46.673Z,50.00
2018-09-28T19:03:14.969Z,49.60
2018-09-28T19:05:43.250Z,53.10
2018-09-28T19:08:11.505Z,54.40
2018-09-28T19:10:39.786Z,53.90
2018-09-28T19:13:08.127Z,53.50
2018-09-28T19:15:36.333Z,53.30
2018-09-28T19:18:04.596Z,53.40
2018-09-28T19:20:32.826Z,53.20
2018-09-28T19:23:01.953Z,53.50
2018-09-28T19:25:30.181Z,52.90
2018-09-28T19:27:58.413Z,52.20
2018-09-28T19:30:26.713Z,51.90
2018-09-28T19:32:54.945Z,51.90
2018-09-28T19:35:23.161Z,51.70
2018-09-28T19:37:51.418Z,51.20
2018-09-28T19:40:19.693Z,51.00
2018-09-28T19:42:48.804Z,51.20
2018-09-28T19:45:17.059Z,51.10
2018-09-28T19:47:45.336Z,50.60
2018-09-28T19:50:13.598Z,50.50
2018-09-28T19:52:41.833Z,50.40
2018-09-28T19:55:10.090Z,51.00
2018-09-28T19:57:38.349Z,51.10
2018-09-28T20:00:07.075Z,50.70
2018-09-28T20:02:35.327Z,50.50
2018-09-28T20:05:03.605Z,50.50
2018-09-28T20:07:31.850Z,51.10
2018-09-28T20:10:00.300Z,52.00
2018-09-28T20:12:28.572Z,51.60
2018-09-28T20:14:56.814Z,50.80
2018-09-28T20:17:25.054Z,50.40
2018-09-28T20:19:53.318Z,50.50
2018-09-28T20:22:21.545Z,50.20
2018-09-28T20:24:49.797Z,50.40
2018-09-28T20:27:18.052Z,50.30
2018-09-28T20:29:46.329Z,50.30
2018-09-28T20:32:14.576Z,50.70
2018-09-28T20:34:42.853Z,50.80
2018-09-28T20:37:11.103Z,50.60
2018-09-28T20:39:39.360Z,51.80
2018-09-28T20:42:07.610Z,51.20
2018-09-28T20:44:35.834Z,50.80
2018-09-28T20:47:04.106Z,51.10
2018-09-28T20:49:32.341Z,52.00
2018-09-28T20:52:00.605Z,51.60
2018-09-28T20:54:28.889Z,51.00
2018-09-28T20:56:57.161Z,50.70
2018-09-28T20:59:25.401Z,51.20
2018-09-28T21:01:53.660Z,51.80
2018-09-28T21:04:21.907Z,50.80
2018-09-28T21:06:50.207Z,50.40
2018-09-28T21:09:18.508Z,50.50
2018-09-28T21:11:46.802Z,50.10
2018-09-28T21:14:15.140Z,50.90
2018-09-28T21:16:43.430Z,50.50
2018-09-28T21:19:11.954Z,50.20
2018-09-28T21:21:40.213Z,50.00
2018-09-28T21:24:08.625Z,49.90
2018-09-28T21:26:37.073Z,50.10
2018-09-28T21:29:05.709Z,50.20
2018-09-28T21:31:33.944Z,50.20
2018-09-28T21:34:02.205Z,50.30
2018-09-28T21:36:30.489Z,50.30
2018-09-28T21:38:58.809Z,50.20
2018-09-28T21:41:27.108Z,50.70
2018-09-28T21:43:55.382Z,50.50
2018-09-28T21:46:23.718Z,52.50
2018-09-28T21:48:51.981Z,50.80
2018-09-28T21:51:20.957Z,50.60
2018-09-28T21:53:49.228Z,50.40
2018-09-28T21:56:17.509Z,50.30
2018-09-28T21:58:45.797Z,50.20
2018-09-28T22:01:17.445Z,50.20
2018-09-28T22:03:46.870Z,50.20
2018-09-28T22:06:15.192Z,50.20
2018-09-28T22:08:43.469Z,50.80
2018-09-28T22:11:11.722Z,50.60
2018-09-28T22:13:39.981Z,50.50
2018-09-28T22:16:08.434Z,50.40
2018-09-28T22:18:36.741Z,50.50
2018-09-28T22:21:04.985Z,50.80
2018-09-28T22:23:33.333Z,51.20
2018-09-28T22:26:01.645Z,51.10
2018-09-28T22:28:29.942Z,51.00
2018-09-28T22:30:58.202Z,52.10
2018-09-28T22:33:26.484Z,51.40
2018-09-28T22:35:54.749Z,50.90
2018-09-28T22:38:23.543Z,50.70
2018-09-28T22:40:51.775Z,50.60
2018-09-28T22:43:20.046Z,50.50
2018-09-28T22:45:48.442Z,50.50
2018-09-28T22:48:16.749Z,50.40
2018-09-28T22:50:45.018Z,50.60
2018-09-28T22:53:13.499Z,50.40
2018-09-28T22:55:41.993Z,50.50
2018-09-28T22:58:10.312Z,50.30
2018-09-28T23:00:38.574Z,50.20
2018-09-28T23:03:06.826Z,50.20
2018-09-28T23:05:35.152Z,50.10
2018-09-28T23:08:03.388Z,50.20
2018-09-28T23:10:31.733Z,50.30
2018-09-28T23:12:59.942Z,50.40
2018-09-28T23:15:28.209Z,50.20
2018-09-28T23:17:56.562Z,50.20
2018-09-28T23:20:24.822Z,50.10
2018-09-28T23:22:53.100Z,50.10
2018-09-28T23:25:21.361Z,50.00
2018-09-28T23:27:49.590Z,49.90
2018-09-28T23:30:17.871Z,50.00
2018-09-28T23:32:46.128Z,50.00
2018-09-28T23:35:14.405Z,49.90
2018-09-28T23:37:42.685Z,50.00
2018-09-28T23:40:10.953Z,49.80
2018-09-28T23:42:39.234Z,49.90
2018-09-28T23:45:07.525Z,50.20
2018-09-28T23:47:35.869Z,50.10
2018-09-28T23:50:04.089Z,50.10
2018-09-28T23:52:32.414Z,50.10
2018-09-28T23:55:00.675Z,49.90
2018-09-28T23:57:28.957Z,49.80
2018-09-28T23:59:57.217Z,49.30
